Time;durP1;ratioP1;P1;durP2;ratioP2;P2;SDS_P1;SDS_P2;PMS_P1;PMS_P2;Temp;Humidity;BMP_temperature;BMP_pressure;BME280_temperature;BME280_humidity;BME280_pressure;Samples;Min_cycle;Max_cycle;Signal;HPM_P1;HPM_P2
2021/08/04 00:00:39;;;;;;;3.40;3.10;;;17.70;1.00;;;;;;5053460;28;20624;-84
2021/08/04 00:03:08;;;;;;;3.90;3.00;;;17.60;1.00;;;;;;5054991;28;20506;-84
2021/08/04 00:05:36;;;;;;;4.83;2.73;;;17.50;1.00;;;;;;5054862;28;20453;-84
2021/08/04 00:08:04;;;;;;;4.27;3.97;;;17.50;1.00;;;;;;5070212;28;20386;-84
2021/08/04 00:10:33;;;;;;;4.10;3.10;;;17.50;1.00;;;;;;5074752;28;20443;-84
2021/08/04 00:13:02;;;;;;;3.13;2.53;;;17.60;1.00;;;;;;5057248;28;20465;-84
2021/08/04 00:15:31;;;;;;;3.13;2.83;;;17.50;1.00;;;;;;5057159;28;20451;-83
2021/08/04 00:17:59;;;;;;;5.10;2.90;;;17.50;1.00;;;;;;5054960;28;20447;-85
2021/08/04 00:20:27;;;;;;;4.27;3.70;;;17.50;1.50;;;;;;5042265;28;20471;-85
2021/08/04 00:22:55;;;;;;;3.30;3.00;;;17.40;2.70;;;;;;5043220;28;20945;-85
2021/08/04 00:25:23;;;;;;;4.07;3.67;;;17.50;2.70;;;;;;5041686;28;20497;-85
2021/08/04 00:27:52;;;;;;;3.80;3.40;;;17.50;3.10;;;;;;5042064;28;20469;-85
2021/08/04 00:30:21;;;;;;;4.13;3.60;;;17.50;3.80;;;;;;5041588;28;21902;-85
2021/08/04 00:32:53;;;;;;;3.17;2.90;;;17.60;4.40;;;;;;5042109;28;20443;-85
2021/08/04 00:35:22;;;;;;;3.60;2.70;;;17.50;2.10;;;;;;5041657;28;20532;-85
2021/08/04 00:37:52;;;;;;;3.23;2.93;;;17.50;3.10;;;;;;5041223;28;20443;-85
2021/08/04 00:40:21;;;;;;;6.10;3.33;;;17.50;3.50;;;;;;5059141;28;20490;-85
2021/08/04 00:42:49;;;;;;;4.50;4.10;;;17.60;3.70;;;;;;5057982;28;20435;-85
2021/08/04 00:45:18;;;;;;;3.43;3.13;;;17.50;4.10;;;;;;5041199;28;20513;-85
2021/08/04 00:47:46;;;;;;;4.57;4.23;;;17.40;5.50;;;;;;5061073;28;20447;-85
2021/08/04 00:50:16;;;;;;;3.67;3.30;;;17.30;8.00;;;;;;5040581;28;20414;-85
2021/08/04 00:52:45;;;;;;;3.37;3.07;;;17.30;10.70;;;;;;5057499;28;20449;-85
2021/08/04 00:55:13;;;;;;;5.80;3.43;;;17.20;11.60;;;;;;5041544;28;20479;-84
2021/08/04 00:57:42;;;;;;;5.93;3.43;;;17.20;13.90;;;;;;5059447;28;20418;-84
2021/08/04 01:00:11;;;;;;;6.17;3.80;;;17.20;15.90;;;;;;5078462;28;20441;-84
2021/08/04 01:02:44;;;;;;;3.17;2.97;;;17.20;15.70;;;;;;5063556;28;20431;-84
2021/08/04 01:05:18;;;;;;;3.43;3.10;;;17.10;16.90;;;;;;5079053;28;20420;-85
2021/08/04 01:07:52;;;;;;;3.77;3.40;;;17.10;18.60;;;;;;5048368;28;20455;-85
2021/08/04 01:10:26;;;;;;;4.40;3.63;;;17.10;19.80;;;;;;5044688;28;20473;-85
2021/08/04 01:13:01;;;;;;;4.40;3.67;;;17.10;21.70;;;;;;5062792;28;20419;-85
2021/08/04 01:15:34;;;;;;;5.40;3.40;;;17.00;24.40;;;;;;5045712;28;20475;-86
2021/08/04 01:18:03;;;;;;;4.60;3.17;;;16.90;30.20;;;;;;5061516;28;20497;-86
2021/08/04 01:20:33;;;;;;;4.70;3.90;;;17.10;30.80;;;;;;5044814;28;20425;-85
2021/08/04 01:23:15;;;;;;;3.97;3.57;;;17.10;32.30;;;;;;5044968;28;21015;-85
2021/08/04 01:25:51;;;;;;;4.80;4.30;;;17.10;38.20;;;;;;5047094;28;20590;-86
2021/08/04 01:28:33;;;;;;;4.10;3.30;;;16.90;41.80;;;;;;5045495;28;20426;-86
2021/08/04 01:31:06;;;;;;;5.87;4.60;;;16.80;49.50;;;;;;5044199;28;20445;-86
2021/08/04 01:33:38;;;;;;;6.07;3.97;;;16.80;54.50;;;;;;5060871;28;20537;-86
2021/08/04 01:36:09;;;;;;;4.13;3.57;;;16.70;61.50;;;;;;5044300;28;20443;-83
2021/08/04 01:38:39;;;;;;;3.57;3.10;;;16.80;83.20;;;;;;5045574;28;20445;-86
2021/08/04 01:41:09;;;;;;;3.83;3.50;;;16.60;74.00;;;;;;5044789;28;20509;-86
2021/08/04 01:43:40;;;;;;;5.50;4.20;;;16.60;81.60;;;;;;5060142;28;20416;-84
2021/08/04 01:46:10;;;;;;;3.67;3.23;;;16.60;91.20;;;;;;5066391;28;20443;-85
2021/08/04 01:48:41;;;;;;;4.20;3.80;;;16.60;93.50;;;;;;5063108;28;20823;-85
2021/08/04 01:51:11;;;;;;;4.63;3.83;;;16.60;92.20;;;;;;5046579;28;20505;-85
2021/08/04 01:53:40;;;;;;;4.80;4.40;;;16.80;82.90;;;;;;5045294;28;20468;-85
2021/08/04 01:56:09;;;;;;;4.60;4.00;;;16.80;81.20;;;;;;5044428;28;20516;-85
2021/08/04 01:58:41;;;;;;;3.03;2.80;;;16.80;82.20;;;;;;5043734;28;20937;-85
2021/08/04 02:01:09;;;;;;;3.73;3.43;;;16.80;79.30;;;;;;5061748;28;20447;-84
2021/08/04 02:03:37;;;;;;;3.63;3.33;;;16.80;93.20;;;;;;5044292;28;20518;-85
2021/08/04 02:06:09;;;;;;;4.53;4.07;;;16.80;82.90;;;;;;5043256;28;20881;-85
2021/08/04 02:08:42;;;;;;;5.90;3.83;;;16.70;89.80;;;;;;5042856;28;20402;-85
2021/08/04 02:11:15;;;;;;;4.70;4.20;;;16.60;95.70;;;;;;5041387;28;20508;-85
2021/08/04 02:13:49;;;;;;;4.70;4.20;;;16.50;99.90;;;;;;5042781;28;20464;-85
2021/08/04 02:16:25;;;;;;;4.43;3.97;;;16.60;99.90;;;;;;5042307;28;21006;-85
2021/08/04 02:19:02;;;;;;;8.50;3.70;;;16.50;99.90;;;;;;5040087;28;20907;-85
2021/08/04 02:21:32;;;;;;;3.87;3.30;;;16.40;99.90;;;;;;5048210;28;20594;-85
2021/08/04 02:24:04;;;;;;;3.90;3.50;;;16.40;99.90;;;;;;5028655;28;20449;-85
2021/08/04 02:26:35;;;;;;;4.33;3.83;;;16.40;99.90;;;;;;5039256;28;20420;-84
2021/08/04 02:29:07;;;;;;;3.60;3.10;;;16.30;99.90;;;;;;5038911;28;20976;-85
2021/08/04 02:31:36;;;;;;;5.00;4.60;;;16.40;99.90;;;;;;5021703;28;20468;-85
2021/08/04 02:34:05;;;;;;;3.43;3.13;;;16.30;99.90;;;;;;5038264;28;20434;-86
2021/08/04 02:36:33;;;;;;;3.90;3.10;;;16.20;99.90;;;;;;5021806;28;20538;-84
2021/08/04 02:39:02;;;;;;;6.00;3.80;;;16.10;99.90;;;;;;5038381;28;20496;-85
2021/08/04 02:41:32;;;;;;;6.33;4.03;;;16.20;99.90;;;;;;5021278;28;20438;-85
2021/08/04 02:44:01;;;;;;;4.43;3.50;;;16.40;99.90;;;;;;5023973;28;20497;-85
2021/08/04 02:46:31;;;;;;;5.27;3.73;;;16.80;99.90;;;;;;5024657;28;20442;-85
2021/08/04 02:48:59;;;;;;;4.00;3.60;;;16.90;99.90;;;;;;5041537;28;20432;-84
2021/08/04 02:51:29;;;;;;;7.20;4.60;;;16.70;99.90;;;;;;5035454;28;21022;-85
2021/08/04 02:53:58;;;;;;;4.93;3.80;;;16.60;99.90;;;;;;5035385;28;20439;-85
2021/08/04 02:56:27;;;;;;;4.83;4.30;;;16.40;99.90;;;;;;5037166;28;20476;-85
2021/08/04 02:58:55;;;;;;;4.63;4.23;;;16.30;99.90;;;;;;5034775;28;20465;-86
2021/08/04 03:01:23;;;;;;;5.23;4.73;;;16.20;99.90;;;;;;5037443;28;20450;-85
2021/08/04 03:03:53;;;;;;;4.67;4.00;;;16.30;99.90;;;;;;5036205;28;20921;-86
2021/08/04 03:06:21;;;;;;;4.57;4.17;;;16.30;99.90;;;;;;5018681;28;20444;-85
2021/08/04 03:08:49;;;;;;;4.90;4.50;;;16.30;99.90;;;;;;5017400;28;20419;-85
2021/08/04 03:11:18;;;;;;;4.60;4.20;;;16.20;99.90;;;;;;5033703;28;20812;-84
2021/08/04 03:13:46;;;;;;;4.27;3.70;;;16.30;99.90;;;;;;5033660;28;20479;-85
2021/08/04 03:16:14;;;;;;;4.37;4.00;;;16.20;99.90;;;;;;5019664;28;20909;-85
2021/08/04 03:18:42;;;;;;;4.80;3.80;;;16.20;99.90;;;;;;5020128;28;20410;-85
2021/08/04 03:21:12;;;;;;;5.10;3.77;;;16.20;99.90;;;;;;5019451;28;20802;-85
2021/08/04 03:23:40;;;;;;;4.10;3.30;;;16.20;99.90;;;;;;5035257;28;20824;-85
2021/08/04 03:26:08;;;;;;;5.67;4.33;;;16.20;99.90;;;;;;5036163;28;20472;-85
2021/08/04 03:28:36;;;;;;;6.20;4.40;;;16.20;99.90;;;;;;5036192;28;20435;-85
2021/08/04 03:31:04;;;;;;;4.67;4.23;;;16.20;99.90;;;;;;5035720;28;20513;-85
2021/08/04 03:33:33;;;;;;;7.70;4.13;;;16.10;99.90;;;;;;5036343;28;20428;-85
2021/08/04 03:36:01;;;;;;;4.37;3.97;;;16.10;99.90;;;;;;5018187;28;20868;-85
2021/08/04 03:38:30;;;;;;;5.47;4.90;;;16.20;99.90;;;;;;5018294;28;20447;-85
2021/08/04 03:40:59;;;;;;;4.83;4.27;;;16.30;99.90;;;;;;5042100;28;20423;-85
2021/08/04 03:43:27;;;;;;;4.97;3.40;;;16.30;99.90;;;;;;5057037;28;20444;-84
2021/08/04 03:45:55;;;;;;;5.07;4.57;;;16.30;99.90;;;;;;5057672;28;20410;-84
2021/08/04 03:48:23;;;;;;;5.83;4.93;;;16.20;99.90;;;;;;5040528;28;20486;-85
2021/08/04 03:50:51;;;;;;;5.57;4.27;;;16.20;99.90;;;;;;5040544;28;20452;-84
2021/08/04 03:53:20;;;;;;;5.07;3.80;;;16.20;99.90;;;;;;5057258;28;20424;-84
2021/08/04 03:55:49;;;;;;;5.47;4.93;;;16.30;99.90;;;;;;5057826;28;20539;-84
2021/08/04 03:58:17;;;;;;;6.63;5.90;;;16.20;99.90;;;;;;5057646;28;20401;-84
2021/08/04 04:00:45;;;;;;;4.33;3.73;;;16.20;99.90;;;;;;5040330;28;20482;-83
2021/08/04 04:03:14;;;;;;;5.17;4.67;;;16.20;99.90;;;;;;5040169;28;20458;-83
2021/08/04 04:05:42;;;;;;;5.80;4.70;;;16.30;99.90;;;;;;5040456;28;20405;-84
2021/08/04 04:08:10;;;;;;;6.93;4.20;;;16.30;99.90;;;;;;5040380;28;20466;-84
2021/08/04 04:10:38;;;;;;;7.30;4.97;;;16.30;99.90;;;;;;5051794;28;20444;-85
2021/08/04 04:13:08;;;;;;;4.60;4.27;;;16.30;99.90;;;;;;5036666;28;20456;-85
2021/08/04 04:15:36;;;;;;;4.17;3.80;;;16.30;99.90;;;;;;5036865;28;20464;-85
2021/08/04 04:18:04;;;;;;;5.60;4.47;;;16.30;99.90;;;;;;5037292;28;20506;-85
2021/08/04 04:20:32;;;;;;;3.90;3.50;;;16.60;99.90;;;;;;5035764;28;20448;-83
2021/08/04 04:23:01;;;;;;;5.07;3.93;;;16.60;99.90;;;;;;5018202;28;20447;-85
2021/08/04 04:25:30;;;;;;;6.57;5.20;;;16.60;99.90;;;;;;5019782;28;20909;-85
2021/08/04 04:27:58;;;;;;;4.40;4.00;;;16.40;99.90;;;;;;5047848;28;20410;-85
2021/08/04 04:30:27;;;;;;;4.83;4.37;;;16.30;99.90;;;;;;5040078;28;20451;-85
2021/08/04 04:32:55;;;;;;;4.87;4.00;;;16.20;99.90;;;;;;5056280;28;20614;-84
2021/08/04 04:35:23;;;;;;;5.03;4.50;;;16.20;99.90;;;;;;5055740;28;20479;-84
2021/08/04 04:37:51;;;;;;;7.13;4.97;;;16.10;99.90;;;;;;5050254;28;20492;-85
2021/08/04 04:40:20;;;;;;;5.60;5.07;;;16.10;99.90;;;;;;5021049;28;20423;-86
2021/08/04 04:42:48;;;;;;;8.07;5.77;;;16.10;99.90;;;;;;5020586;28;20444;-84
2021/08/04 04:45:16;;;;;;;6.00;4.40;;;16.30;99.90;;;;;;5020108;28;20456;-85
2021/08/04 04:47:46;;;;;;;5.10;4.70;;;16.30;99.90;;;;;;5037297;28;20424;-85
2021/08/04 04:50:14;;;;;;;7.40;4.40;;;16.40;99.90;;;;;;5019875;28;20504;-85
2021/08/04 04:52:43;;;;;;;7.20;5.60;;;16.40;99.90;;;;;;5019637;28;20586;-85
2021/08/04 04:55:13;;;;;;;6.20;5.70;;;16.30;99.90;;;;;;5036262;28;20484;-85
2021/08/04 04:57:41;;;;;;;5.77;4.10;;;16.30;99.90;;;;;;5017894;28;20879;-85
2021/08/04 05:00:11;;;;;;;5.87;5.00;;;16.30;99.90;;;;;;5018433;28;20837;-85
2021/08/04 05:02:39;;;;;;;7.53;6.27;;;16.20;99.90;;;;;;5027707;28;20436;-85
2021/08/04 05:05:12;;;;;;;5.20;4.70;;;16.10;99.90;;;;;;5042696;28;20820;-85
2021/08/04 05:07:41;;;;;;;6.33;5.50;;;16.20;99.90;;;;;;5026735;28;20436;-85
2021/08/04 05:10:09;;;;;;;5.93;5.33;;;16.30;99.90;;;;;;5040589;28;20423;-85
2021/08/04 05:12:37;;;;;;;7.70;6.33;;;16.30;99.90;;;;;;5038998;28;20407;-85
2021/08/04 05:15:07;;;;;;;9.50;5.77;;;16.40;99.90;;;;;;5021876;28;20484;-85
2021/08/04 05:17:35;;;;;;;6.63;5.50;;;16.50;99.90;;;;;;5038230;28;20467;-86
2021/08/04 05:20:04;;;;;;;5.87;5.30;;;16.70;99.90;;;;;;5037768;28;20408;-85
2021/08/04 05:22:33;;;;;;;6.60;5.70;;;16.70;99.90;;;;;;5022970;28;20422;-86
2021/08/04 05:25:01;;;;;;;5.90;5.23;;;17.00;99.90;;;;;;5021706;28;20418;-85
2021/08/04 05:27:29;;;;;;;7.23;5.60;;;17.10;99.90;;;;;;5039868;28;20845;-86
2021/08/04 05:29:57;;;;;;;6.73;5.53;;;17.00;99.90;;;;;;5039092;28;20409;-86
2021/08/04 05:32:26;;;;;;;7.43;6.70;;;17.00;99.90;;;;;;5037996;28;20448;-86
2021/08/04 05:34:54;;;;;;;5.93;4.80;;;17.10;99.90;;;;;;5020055;28;20490;-85
2021/08/04 05:37:22;;;;;;;6.63;5.93;;;17.20;99.90;;;;;;5035669;28;20435;-86
2021/08/04 05:39:51;;;;;;;6.63;5.77;;;17.30;99.90;;;;;;5018028;28;20416;-85
2021/08/04 05:42:20;;;;;;;6.83;6.03;;;17.40;99.90;;;;;;5035282;28;20451;-86
2021/08/04 05:44:48;;;;;;;5.97;5.00;;;17.70;99.90;;;;;;5017454;28;20451;-86
2021/08/04 05:47:17;;;;;;;6.37;5.70;;;17.80;99.90;;;;;;5037147;28;20450;-86
2021/08/04 05:49:45;;;;;;;6.13;5.20;;;18.10;99.90;;;;;;5038246;28;20412;-85
2021/08/04 05:52:13;;;;;;;7.60;6.00;;;18.00;99.90;;;;;;5089152;22;20482;-85
2021/08/04 05:54:44;;;;;;;6.37;5.87;;;17.70;99.90;;;;;;5085634;28;20430;-85
2021/08/04 05:57:16;;;;;;;5.53;5.10;;;17.70;99.90;;;;;;5067264;28;20436;-84
2021/08/04 05:59:45;;;;;;;11.10;6.20;;;18.20;96.90;;;;;;5092706;28;20469;-85
2021/08/04 06:02:14;;;;;;;6.63;6.00;;;18.30;90.50;;;;;;5090244;28;20421;-85
2021/08/04 06:04:43;;;;;;;6.77;6.17;;;18.30;79.20;;;;;;5088020;28;20410;-85
2021/08/04 06:07:13;;;;;;;8.20;6.10;;;18.10;79.80;;;;;;5091474;28;20422;-84
2021/08/04 06:09:41;;;;;;;7.70;6.97;;;18.10;83.80;;;;;;5093216;28;20414;-85
2021/08/04 06:12:10;;;;;;;7.67;6.93;;;18.20;83.80;;;;;;5074236;28;20458;-85
2021/08/04 06:14:40;;;;;;;7.30;5.77;;;18.10;75.20;;;;;;5086936;28;20476;-85
2021/08/04 06:17:09;;;;;;;5.73;5.23;;;18.10;79.80;;;;;;5084149;28;20460;-86
2021/08/04 06:19:38;;;;;;;8.20;7.40;;;18.10;76.70;;;;;;5064896;28;21003;-85
2021/08/04 06:22:06;;;;;;;6.10;5.07;;;18.40;73.90;;;;;;5082590;28;20458;-84
2021/08/04 06:24:45;;;;;;;7.27;6.57;;;18.50;62.30;;;;;;5073262;28;20492;-83
2021/08/04 06:27:14;;;;;;;5.70;5.20;;;18.70;57.10;;;;;;5095160;28;20898;-84
2021/08/04 06:29:47;;;;;;;7.07;6.37;;;18.90;51.40;;;;;;5078665;28;20460;-85
2021/08/04 06:32:21;;;;;;;6.83;6.20;;;19.10;47.90;;;;;;5096675;28;20392;-84
2021/08/04 06:34:58;;;;;;;5.23;4.67;;;19.20;41.00;;;;;;5079312;28;20471;-84
2021/08/04 06:37:27;;;;;;;8.00;5.67;;;18.80;42.70;;;;;;5096743;28;20542;-84
2021/08/04 06:39:56;;;;;;;6.53;5.93;;;18.60;43.10;;;;;;5093917;28;20413;-85
2021/08/04 06:42:32;;;;;;;5.37;4.97;;;18.60;42.30;;;;;;5083894;28;20421;-85
2021/08/04 06:45:10;;;;;;;5.47;4.97;;;18.80;38.40;;;;;;5050461;28;20442;-85
2021/08/04 06:47:40;;;;;;;4.43;4.03;;;19.20;37.20;;;;;;5083675;28;20484;-85
2021/08/04 06:50:10;;;;;;;4.33;3.93;;;19.40;31.00;;;;;;5065263;28;20446;-85
2021/08/04 06:52:44;;;;;;;4.30;3.90;;;19.50;26.70;;;;;;5049657;28;20565;-85
2021/08/04 06:55:16;;;;;;;4.10;3.70;;;19.80;23.90;;;;;;5084315;28;20506;-85
2021/08/04 06:57:48;;;;;;;5.20;4.70;;;19.90;21.20;;;;;;5084417;28;20545;-86
2021/08/04 07:00:34;;;;;;;5.73;4.30;;;20.00;19.10;;;;;;5065359;28;20423;-85
2021/08/04 07:03:13;;;;;;;4.33;3.53;;;20.20;18.20;;;;;;5084249;28;20442;-83
2021/08/04 07:05:51;;;;;;;3.97;3.60;;;20.50;15.40;;;;;;5065822;28;20978;-85
2021/08/04 07:08:28;;;;;;;4.33;3.70;;;20.80;14.20;;;;;;5084616;28;20410;-86
2021/08/04 07:11:13;;;;;;;4.53;4.13;;;21.30;12.50;;;;;;5091765;28;20427;-85
2021/08/04 07:14:00;;;;;;;3.10;2.87;;;21.50;9.80;;;;;;5093238;28;20417;-86
2021/08/04 07:16:34;;;;;;;6.23;5.83;;;21.80;7.60;;;;;;5097636;28;20871;-85
2021/08/04 07:19:03;;;;;;;3.63;3.33;;;22.20;6.60;;;;;;5081219;28;20451;-86
2021/08/04 07:21:32;;;;;;;4.23;3.80;;;22.30;1.00;;;;;;5098443;28;20414;-86
2021/08/04 07:24:00;;;;;;;4.30;3.90;;;22.30;1.00;;;;;;5081017;28;20415;-86
2021/08/04 07:26:30;;;;;;;4.53;3.97;;;22.30;1.00;;;;;;5097867;28;20456;-85
2021/08/04 07:28:59;;;;;;;4.90;3.73;;;21.90;1.00;;;;;;5097270;28;20449;-85
2021/08/04 07:31:28;;;;;;;4.60;4.20;;;21.80;1.00;;;;;;5094936;28;20397;-86
2021/08/04 07:33:58;;;;;;;4.60;4.17;;;21.90;1.00;;;;;;5083844;28;20399;-84
2021/08/04 07:36:27;;;;;;;4.13;3.70;;;22.10;1.00;;;;;;5079823;28;20440;-86
2021/08/04 07:38:58;;;;;;;6.53;4.07;;;22.00;1.00;;;;;;5064339;28;20519;-84
2021/08/04 07:41:44;;;;;;;6.70;3.97;;;22.00;1.00;;;;;;5079070;28;20385;-85
2021/08/04 07:44:16;;;;;;;4.27;3.87;;;22.00;1.00;;;;;;5060338;28;20411;-84
2021/08/04 07:46:54;;;;;;;6.80;5.13;;;22.10;1.00;;;;;;5078583;28;20442;-84
2021/08/04 07:49:24;;;;;;;5.93;4.27;;;22.10;1.00;;;;;;5078184;28;20484;-85
2021/08/04 07:51:53;;;;;;;7.07;4.57;;;22.20;1.00;;;;;;5078707;28;20804;-83
2021/08/04 07:54:22;;;;;;;3.70;3.40;;;21.90;1.00;;;;;;5079410;28;20953;-84
2021/08/04 07:56:51;;;;;;;4.53;4.00;;;21.60;1.00;;;;;;5061778;28;20474;-84
2021/08/04 07:59:23;;;;;;;4.57;4.13;;;21.50;1.00;;;;;;5062733;28;20444;-84
2021/08/04 08:02:10;;;;;;;11.53;4.33;;;21.50;1.00;;;;;;5060051;28;20464;-85
2021/08/04 08:04:45;;;;;;;3.53;3.23;;;21.40;1.00;;;;;;5046765;28;20833;-85
2021/08/04 08:07:17;;;;;;;5.20;4.73;;;21.20;1.00;;;;;;5081264;28;20916;-85
2021/08/04 08:09:50;;;;;;;4.00;3.60;;;21.40;1.00;;;;;;5087492;28;20401;-84
2021/08/04 08:12:34;;;;;;;5.30;4.80;;;21.70;1.00;;;;;;5071789;28;20446;-85
2021/08/04 08:15:20;;;;;;;6.00;5.13;;;21.90;1.00;;;;;;5083597;28;20401;-84
2021/08/04 08:18:01;;;;;;;7.13;4.63;;;22.10;1.00;;;;;;5082912;28;20420;-86
2021/08/04 08:20:41;;;;;;;3.50;3.20;;;22.00;1.00;;;;;;5067066;28;20405;-86
2021/08/04 08:23:24;;;;;;;4.47;3.83;;;22.30;1.00;;;;;;5073340;28;20473;-85
2021/08/04 08:25:59;;;;;;;4.80;4.40;;;22.10;1.00;;;;;;5090931;28;20458;-85
2021/08/04 08:28:38;;;;;;;5.53;4.90;;;22.20;1.00;;;;;;5074412;28;20661;-84
2021/08/04 08:31:11;;;;;;;4.30;3.90;;;22.30;1.00;;;;;;5091479;28;20440;-84
2021/08/04 08:34:10;;;;;;;5.27;3.77;;;21.90;1.00;;;;;;5092337;28;20466;-86
2021/08/04 08:36:45;;;;;;;7.90;4.70;;;22.00;1.00;;;;;;5097469;28;20406;-86
2021/08/04 08:39:20;;;;;;;4.43;4.07;;;22.00;1.00;;;;;;5095767;28;20425;-86
2021/08/04 08:41:52;;;;;;;4.50;4.10;;;22.20;1.00;;;;;;5095789;28;20423;-85
2021/08/04 08:44:27;;;;;;;4.80;4.30;;;22.30;1.00;;;;;;5078145;28;20449;-84
2021/08/04 08:47:07;;;;;;;4.90;4.30;;;22.70;1.00;;;;;;5094265;28;20415;-85
2021/08/04 08:49:42;;;;;;;4.37;3.97;;;22.90;1.00;;;;;;5078493;28;20423;-86
2021/08/04 08:52:23;;;;;;;4.37;3.97;;;23.20;1.00;;;;;;5096533;28;20431;-84
2021/08/04 08:54:52;;;;;;;3.90;3.60;;;23.20;1.00;;;;;;5079840;28;20458;-85
2021/08/04 08:57:30;;;;;;;3.93;3.57;;;23.50;1.00;;;;;;5096644;28;20410;-86
2021/08/04 09:00:00;;;;;;;4.67;4.00;;;23.70;1.00;;;;;;5097182;28;20373;-86
2021/08/04 09:02:38;;;;;;;4.57;3.33;;;23.60;1.00;;;;;;5096935;28;20424;-86
2021/08/04 09:05:08;;;;;;;4.00;3.30;;;23.70;1.00;;;;;;5077109;28;20435;-84
2021/08/04 09:07:42;;;;;;;4.17;3.70;;;23.20;1.00;;;;;;5090994;28;20434;-86
2021/08/04 09:10:31;;;;;;;3.70;3.40;;;22.80;1.00;;;;;;5077026;28;20456;-85
2021/08/04 09:13:06;;;;;;;4.37;4.03;;;22.30;1.00;;;;;;5096935;28;20450;-86
2021/08/04 09:15:40;;;;;;;7.30;4.00;;;22.60;1.00;;;;;;5079560;28;20443;-86
2021/08/04 09:18:11;;;;;;;3.90;3.60;;;23.00;1.00;;;;;;5079614;28;20453;-86
2021/08/04 09:20:53;;;;;;;3.70;3.40;;;23.40;1.00;;;;;;5079519;28;20395;-87
2021/08/04 09:23:29;;;;;;;5.07;3.73;;;23.50;1.00;;;;;;5099896;28;20529;-85
2021/08/04 09:26:06;;;;;;;3.10;2.80;;;23.90;1.00;;;;;;5100430;28;20444;-84
2021/08/04 09:29:06;;;;;;;4.70;3.27;;;24.00;1.00;;;;;;5097716;28;20409;-85
2021/08/04 09:31:48;;;;;;;4.60;3.53;;;24.10;1.00;;;;;;5095777;28;20441;-85
2021/08/04 09:37:29;;;;;;;3.87;2.93;;;24.10;1.00;;;;;;5065169;28;20525;-84
2021/08/04 09:40:14;;;;;;;5.90;2.73;;;23.70;1.00;;;;;;5084423;28;20525;-87
2021/08/04 09:42:49;;;;;;;4.03;2.90;;;23.70;1.00;;;;;;5070121;28;20461;-86
2021/08/04 09:45:46;;;;;;;3.33;3.03;;;22.80;1.00;;;;;;5068003;28;20515;-86
2021/08/04 09:48:18;;;;;;;5.37;3.70;;;22.60;1.00;;;;;;5084876;28;20892;-84
2021/08/04 09:50:53;;;;;;;8.47;6.60;;;22.70;1.00;;;;;;5066343;28;20530;-85
2021/08/04 09:53:24;;;;;;;6.33;4.80;;;22.90;1.00;;;;;;5084185;28;20526;-86
2021/08/04 09:56:12;;;;;;;4.00;3.60;;;23.40;1.00;;;;;;5084219;28;20815;-86
2021/08/04 09:58:46;;;;;;;3.70;3.37;;;23.90;1.00;;;;;;5086837;28;20975;-85
2021/08/04 10:01:20;;;;;;;3.10;2.47;;;24.10;1.00;;;;;;5077797;28;20412;-84
2021/08/04 10:04:07;;;;;;;3.73;2.63;;;24.20;1.00;;;;;;5088219;28;20418;-84
2021/08/04 10:06:40;;;;;;;3.93;3.50;;;24.30;1.00;;;;;;5084544;28;20905;-85
2021/08/04 10:09:17;;;;;;;3.60;2.60;;;23.00;1.00;;;;;;5065751;28;20416;-84
2021/08/04 10:11:49;;;;;;;2.90;2.60;;;23.30;1.00;;;;;;5066622;28;20482;-85
2021/08/04 10:14:19;;;;;;;4.03;2.87;;;23.80;1.00;;;;;;5084682;28;20393;-85
2021/08/04 10:16:55;;;;;;;2.87;2.50;;;23.60;1.00;;;;;;5067008;28;20416;-84
2021/08/04 10:19:35;;;;;;;3.30;2.50;;;23.00;1.00;;;;;;5072818;28;20440;-84
2021/08/04 10:22:21;;;;;;;2.50;2.27;;;22.80;1.00;;;;;;5090990;28;20542;-84
2021/08/04 10:24:54;;;;;;;3.70;2.80;;;23.20;1.00;;;;;;5087038;28;20385;-84
2021/08/04 10:27:33;;;;;;;3.87;2.53;;;22.80;1.00;;;;;;5051137;28;20412;-85
2021/08/04 10:30:02;;;;;;;3.00;2.43;;;22.90;1.00;;;;;;5084976;28;20429;-85
2021/08/04 10:32:32;;;;;;;3.70;3.40;;;22.70;1.00;;;;;;5085010;28;20409;-85
2021/08/04 10:35:03;;;;;;;4.27;3.17;;;22.80;1.00;;;;;;5085760;28;20542;-86
2021/08/04 10:37:35;;;;;;;6.43;3.50;;;22.60;1.00;;;;;;5084354;28;21132;-85
2021/08/04 10:40:14;;;;;;;4.13;3.47;;;22.20;1.00;;;;;;5065999;28;20436;-84
2021/08/04 10:42:46;;;;;;;2.80;2.50;;;21.80;1.00;;;;;;5084342;28;20419;-87
2021/08/04 10:45:33;;;;;;;6.47;3.37;;;21.80;1.00;;;;;;5083682;28;20411;-84
2021/08/04 10:48:23;;;;;;;2.87;2.67;;;21.90;1.00;;;;;;5083070;28;20420;-86
2021/08/04 10:51:17;;;;;;;3.10;2.83;;;22.00;1.00;;;;;;5085806;28;20416;-87
2021/08/04 10:54:36;;;;;;;3.37;3.07;;;22.20;1.00;;;;;;5093868;28;20398;-85
2021/08/04 10:57:11;;;;;;;2.83;2.50;;;22.10;1.00;;;;;;5072776;28;20444;-87
2021/08/04 10:59:50;;;;;;;3.50;3.10;;;21.90;1.00;;;;;;5091580;28;20432;-87
2021/08/04 11:02:32;;;;;;;4.23;3.83;;;22.00;1.00;;;;;;5074459;28;20433;-86
2021/08/04 11:05:06;;;;;;;4.17;3.77;;;21.90;1.00;;;;;;5093332;28;20408;-85
2021/08/04 11:08:21;;;;;;;3.10;2.73;;;21.70;1.00;;;;;;5064944;28;20512;-85
2021/08/04 11:10:58;;;;;;;4.30;3.20;;;21.60;1.00;;;;;;5086506;28;20435;-85
2021/08/04 11:13:53;;;;;;;2.90;2.57;;;21.90;1.00;;;;;;5094860;28;20967;-84
2021/08/04 11:16:33;;;;;;;3.00;2.70;;;22.00;1.00;;;;;;5094393;28;20736;-84
2021/08/04 11:19:09;;;;;;;2.90;2.50;;;21.70;1.00;;;;;;5077498;28;20432;-85
2021/08/04 11:22:22;;;;;;;2.83;2.60;;;21.80;1.00;;;;;;5076230;28;20469;-85
2021/08/04 11:24:55;;;;;;;2.60;2.40;;;22.30;1.00;;;;;;5068971;28;20458;-86
2021/08/04 11:27:31;;;;;;;3.03;2.70;;;22.40;1.00;;;;;;5064087;28;20436;-85
2021/08/04 11:30:12;;;;;;;3.10;2.40;;;22.40;1.00;;;;;;5084193;28;20444;-86
2021/08/04 11:33:36;;;;;;;2.60;2.40;;;22.70;1.00;;;;;;5063359;28;20565;-85
2021/08/04 11:36:18;;;;;;;2.40;2.20;;;23.00;1.00;;;;;;5063622;28;20930;-84
2021/08/04 11:39:01;;;;;;;4.50;2.00;;;23.00;1.00;;;;;;5081343;28;20418;-84
2021/08/04 11:41:45;;;;;;;3.80;2.30;;;23.20;1.00;;;;;;5063687;28;20442;-84
2021/08/04 11:44:22;;;;;;;3.20;2.30;;;23.10;1.00;;;;;;5059208;28;20438;-83
2021/08/04 11:46:54;;;;;;;2.63;2.43;;;23.00;1.00;;;;;;5057507;28;20404;-84
2021/08/04 11:49:35;;;;;;;2.90;2.17;;;22.70;1.00;;;;;;5077372;28;20437;-83
2021/08/04 11:52:10;;;;;;;4.17;2.20;;;23.00;1.00;;;;;;5088927;22;20488;-82
2021/08/04 11:54:41;;;;;;;3.40;2.30;;;22.90;1.00;;;;;;5090609;28;20429;-84
2021/08/04 11:57:30;;;;;;;2.90;2.17;;;22.30;1.00;;;;;;5098048;28;20439;-84
2021/08/04 12:00:12;;;;;;;3.10;2.30;;;22.50;1.00;;;;;;5079601;28;20475;-83
2021/08/04 12:02:48;;;;;;;2.50;2.23;;;22.60;1.00;;;;;;5097498;28;20785;-83
2021/08/04 12:05:26;;;;;;;2.07;1.87;;;22.60;1.00;;;;;;5096991;28;20393;-83
2021/08/04 12:07:56;;;;;;;3.47;2.50;;;23.00;1.00;;;;;;5097635;28;20915;-83
2021/08/04 12:10:44;;;;;;;2.47;2.27;;;23.00;1.00;;;;;;5097501;28;20475;-84
2021/08/04 12:13:15;;;;;;;3.27;2.30;;;23.20;1.00;;;;;;5078805;28;20936;-84
2021/08/04 12:15:44;;;;;;;2.37;1.93;;;22.80;1.00;;;;;;5078401;28;20516;-84
2021/08/04 12:18:13;;;;;;;2.33;2.10;;;22.40;1.00;;;;;;5078357;28;20484;-82
2021/08/04 12:20:43;;;;;;;2.80;2.30;;;22.30;1.00;;;;;;5078931;28;20424;-82
2021/08/04 12:23:14;;;;;;;2.43;2.07;;;22.50;1.00;;;;;;5078261;28;20542;-84
2021/08/04 12:25:44;;;;;;;2.13;1.93;;;22.80;1.00;;;;;;5096364;28;20424;-82
2021/08/04 12:28:13;;;;;;;2.27;2.07;;;23.10;1.00;;;;;;5095241;28;20425;-83
2021/08/04 12:30:44;;;;;;;2.80;2.40;;;23.30;1.00;;;;;;5079394;28;20435;-83
2021/08/04 12:33:16;;;;;;;2.40;1.90;;;23.40;1.00;;;;;;5077829;28;20460;-82
2021/08/04 12:36:01;;;;;;;2.30;2.07;;;23.40;1.00;;;;;;5078363;28;20506;-83
2021/08/04 12:38:54;;;;;;;2.40;1.83;;;23.00;1.00;;;;;;5078674;28;20928;-83
2021/08/04 12:41:26;;;;;;;2.77;2.33;;;22.70;1.00;;;;;;5078673;28;20944;-83
2021/08/04 12:43:56;;;;;;;2.80;2.47;;;22.70;1.00;;;;;;5078417;28;20752;-82
2021/08/04 12:46:27;;;;;;;3.30;2.17;;;22.30;1.00;;;;;;5077969;28;20449;-83
2021/08/04 12:48:57;;;;;;;2.40;2.17;;;22.40;1.00;;;;;;5077853;28;20848;-83
2021/08/04 12:51:27;;;;;;;1.70;1.50;;;22.50;1.00;;;;;;5079598;28;20420;-83
2021/08/04 12:53:57;;;;;;;2.43;2.20;;;22.50;1.00;;;;;;5077807;28;20741;-84
2021/08/04 12:56:31;;;;;;;3.77;2.60;;;22.60;1.00;;;;;;5080692;28;20416;-82
2021/08/04 12:59:01;;;;;;;2.20;2.00;;;22.60;1.00;;;;;;5081650;28;20462;-82
2021/08/04 13:01:34;;;;;;;2.57;2.30;;;22.90;1.00;;;;;;5081451;28;20457;-82
2021/08/04 13:04:16;;;;;;;3.10;2.80;;;23.10;1.00;;;;;;5082190;28;20780;-84
2021/08/04 13:06:54;;;;;;;2.27;2.07;;;23.20;1.00;;;;;;5082295;28;20923;-83
2021/08/04 13:09:25;;;;;;;3.73;1.83;;;23.30;1.00;;;;;;5082186;28;20844;-84
2021/08/04 13:12:13;;;;;;;2.63;1.80;;;23.30;1.00;;;;;;5081799;28;20465;-84
2021/08/04 13:15:07;;;;;;;3.47;2.10;;;23.20;1.00;;;;;;5099909;28;20388;-83
2021/08/04 13:17:37;;;;;;;2.00;1.77;;;23.30;1.00;;;;;;5081214;28;20449;-83
2021/08/04 13:20:18;;;;;;;3.50;2.83;;;23.30;1.00;;;;;;5081732;28;20928;-83
2021/08/04 13:23:00;;;;;;;2.37;2.10;;;22.90;1.00;;;;;;5085880;28;20477;-82
2021/08/04 13:25:31;;;;;;;2.70;2.40;;;22.60;1.00;;;;;;5081907;28;20522;-82
2021/08/04 13:28:06;;;;;;;2.80;2.30;;;22.50;1.00;;;;;;5081647;28;20433;-82